Time;durP1;ratioP1;P1;durP2;ratioP2;P2;SDS_P1;SDS_P2;PMS_P1;PMS_P2;Temp;Humidity;BMP_temperature;BMP_pressure;BME280_temperature;BME280_humidity;BME280_pressure;Samples;Min_cycle;Max_cycle;Signal;HPM_P1;HPM_P2
2023/04/10 00:00:42;;;;;;;;;73.33;58.67;;;;;3.71;100.00;100265.47;6311848;20;2868169;-54
2023/04/10 00:03:11;;;;;;;;;76.00;60.00;;;;;3.44;100.00;100255.50;6312713;20;2864931;-54
2023/04/10 00:05:41;;;;;;;;;78.67;60.33;;;;;3.61;100.00;100258.66;6281646;20;2872282;-50
2023/04/10 00:08:11;;;;;;;;;83.00;60.33;;;;;3.53;100.00;100257.94;6311945;20;3646123;-51
2023/04/10 00:10:40;;;;;;;;;77.00;58.67;;;;;3.42;100.00;100238.72;6312100;20;3636860;-54
2023/04/10 00:13:10;;;;;;;;;73.67;55.00;;;;;3.42;100.00;100247.59;6312505;20;3643162;-54
2023/04/10 00:15:39;;;;;;;;;74.33;57.00;;;;;3.45;100.00;100250.16;6307826;20;3638879;-51
2023/04/10 00:18:09;;;;;;;;;74.00;56.33;;;;;3.50;100.00;100252.69;6309222;20;2889936;-51
2023/04/10 00:20:39;;;;;;;;;75.67;55.33;;;;;3.29;100.00;100244.34;6309705;20;3638905;-48
2023/04/10 00:23:09;;;;;;;;;80.33;60.00;;;;;3.51;100.00;100243.84;6314249;20;2879618;-53
2023/04/10 00:25:39;;;;;;;;;72.00;55.00;;;;;3.72;100.00;100245.97;6312983;20;2876447;-48
2023/04/10 00:28:08;;;;;;;;;71.67;57.00;;;;;3.74;100.00;100249.47;6311815;20;3628374;-51
2023/04/10 00:30:38;;;;;;;;;73.33;55.33;;;;;3.70;100.00;100250.44;6312269;20;3641947;-49
2023/04/10 00:33:07;;;;;;;;;65.00;53.00;;;;;3.59;100.00;100249.84;6310638;20;2875397;-52
2023/04/10 00:35:37;;;;;;;;;68.67;54.33;;;;;3.46;100.00;100251.03;6310885;20;3629434;-52
2023/04/10 00:38:07;;;;;;;;;68.67;51.67;;;;;3.47;100.00;100252.75;6311436;20;3634748;-50
2023/04/10 00:40:37;;;;;;;;;66.67;51.67;;;;;3.17;100.00;100244.59;6310515;20;2875354;-51
2023/04/10 00:43:06;;;;;;;;;70.00;53.00;;;;;3.19;100.00;100242.81;6309244;20;3634627;-50
2023/04/10 00:45:36;;;;;;;;;68.33;51.33;;;;;3.17;100.00;100244.59;6312640;20;2890966;-52
2023/04/10 00:48:06;;;;;;;;;63.67;52.00;;;;;3.27;100.00;100235.53;6312119;20;2873304;-52
2023/04/10 00:50:36;;;;;;;;;66.67;53.00;;;;;3.36;100.00;100238.88;6308092;20;2881653;-52
2023/04/10 00:53:06;;;;;;;;;59.00;45.00;;;;;3.38;100.00;100237.06;6309572;20;2864981;-49
2023/04/10 00:55:36;;;;;;;;;62.33;50.33;;;;;3.25;100.00;100233.81;6309702;20;2877401;-52
2023/04/10 00:58:05;;;;;;;;;59.33;48.33;;;;;3.27;100.00;100235.53;6307873;20;2872167;-53
2023/04/10 01:00:35;;;;;;;;;65.67;49.67;;;;;3.57;100.00;100230.41;6308835;20;2886820;-50
2023/04/10 01:03:04;;;;;;;;;59.00;47.00;;;;;3.55;100.00;100234.00;6311355;20;2868999;-51
2023/04/10 01:06:29;;;;;;;;;63.00;46.50;;;;;3.71;100.00;100238.03;6279425;20;2878508;-52
2023/04/10 01:09:39;;;;;;;;;59.00;47.00;;;;;3.83;100.00;100231.56;6278232;20;2854121;-53
2023/04/10 01:12:41;;;;;;;;;63.00;47.00;;;;;3.76;100.00;100235.25;6280036;20;2760800;-53
2023/04/10 01:15:16;;;;;;;;;56.00;43.00;;;;;3.70;100.00;100229.19;6307563;20;2852576;-54
2023/04/10 01:18:25;;;;;;;;;60.00;48.00;;;;;3.84;100.00;100231.50;6278830;20;2872341;-49
2023/04/10 01:20:56;;;;;;;;;67.33;50.00;;;;;3.68;100.00;100230.13;6305734;20;3628439;-53
2023/04/10 01:24:09;;;;;;;;;63.33;51.00;;;;;3.75;100.00;100226.44;6308719;20;2874311;-51
2023/04/10 01:27:22;;;;;;;;;64.67;51.33;;;;;3.64;100.00;100228.50;6308803;20;2877515;-51
2023/04/10 01:29:57;;;;;;;;;70.33;54.00;;;;;3.69;100.00;100223.94;6310450;20;2886906;-52
2023/04/10 01:32:30;;;;;;;;;67.33;52.67;;;;;3.61;100.00;100228.56;6309059;20;3641906;-51
2023/04/10 01:35:07;;;;;;;;;69.67;52.33;;;;;3.63;100.00;100216.09;6307934;20;3642994;-54
2023/04/10 01:37:43;;;;;;;;;71.33;55.67;;;;;3.73;100.00;100218.50;6308723;20;3630513;-49
2023/04/10 01:40:17;;;;;;;;;68.00;52.67;;;;;3.83;100.00;100218.28;6308369;20;3633611;-54
2023/04/10 01:42:56;;;;;;;;;66.33;52.67;;;;;3.68;100.00;100217.72;6305749;20;2871120;-52
2023/04/10 01:45:28;;;;;;;;;68.67;52.00;;;;;3.63;100.00;100216.09;6307032;20;2879560;-49
2023/04/10 01:47:58;;;;;;;;;70.33;52.67;;;;;3.49;100.00;100212.00;6308289;20;3642957;-52
2023/04/10 01:50:29;;;;;;;;;73.67;51.67;;;;;3.32;100.00;100218.63;6306264;20;3641928;-52
2023/04/10 01:53:02;;;;;;;;;65.33;49.00;;;;;3.28;100.00;100213.38;6312839;20;3634664;-49
2023/04/10 01:55:33;;;;;;;;;68.00;51.33;;;;;3.34;100.00;100208.84;6313287;20;2876642;-50
2023/04/10 01:58:03;;;;;;;;;60.50;48.50;;;;;3.15;100.00;100216.38;6313806;20;2868121;-53
2023/04/10 02:00:41;;;;;;;;;68.67;53.00;;;;;3.09;100.00;100204.13;6282203;20;2877475;-50
2023/04/10 02:03:11;;;;;;;;;62.00;51.50;;;;;3.39;100.00;100206.97;6315929;20;2872183;-52
2023/04/10 02:06:14;;;;;;;;;58.00;46.50;;;;;3.26;100.00;100209.88;6281674;20;2847286;-52
2023/04/10 02:08:56;;;;;;;;;60.50;46.50;;;;;3.21;100.00;100206.50;6275603;20;2871271;-51
2023/04/10 02:11:48;;;;;;;;;64.00;50.00;;;;;3.16;100.00;100205.72;6274382;20;2879538;-53
2023/04/10 02:14:22;;;;;;;;;63.00;49.00;;;;;3.41;100.00;100211.31;6307547;20;3623205;-51
2023/04/10 02:16:54;;;;;;;;;69.00;51.00;;;;;3.47;100.00;100212.94;6308560;20;3645101;-50
2023/04/10 02:19:26;;;;;;;;;73.00;54.00;;;;;3.58;100.00;100202.97;6310662;20;3642971;-51
2023/04/10 02:21:57;;;;;;;;;69.00;51.67;;;;;3.20;100.00;100207.38;6309700;20;3629509;-50
2023/04/10 02:24:27;;;;;;;;;60.50;47.00;;;;;3.24;100.00;100205.56;6313200;20;2872182;-53
2023/04/10 02:26:56;;;;;;;;;57.50;46.00;;;;;3.51;100.00;100201.38;6283468;20;2866967;-53
2023/04/10 02:29:25;;;;;;;;;56.50;46.00;;;;;3.55;100.00;100202.16;6282358;20;2854554;-53
2023/04/10 02:31:55;;;;;;;;;47.50;39.50;;;;;3.62;100.00;100209.06;6288311;20;2845111;-54
2023/04/10 02:34:24;;;;;;;;;58.50;45.00;;;;;3.76;100.00;100204.25;6281684;20;2852586;-53
2023/04/10 02:36:53;;;;;;;;;57.00;44.00;;;;;3.70;100.00;100199.97;6280874;20;2856535;-53
2023/04/10 02:39:22;;;;;;;;;58.00;47.00;;;;;3.77;100.00;100203.38;6284280;20;2739965;-52
2023/04/10 02:41:51;;;;;;;;;54.50;43.50;;;;;3.78;100.00;100201.59;6309778;20;2856702;-53
2023/04/10 02:44:20;;;;;;;;;56.00;43.00;;;;;3.71;100.00;100199.09;6283638;20;2875293;-54
2023/04/10 02:46:49;;;;;;;;;56.00;45.50;;;;;3.73;100.00;100194.59;6284352;20;2861730;-55
2023/04/10 02:49:18;;;;;;;;;55.00;42.00;;;;;3.66;100.00;100185.06;6283143;20;2870068;-52
2023/04/10 02:51:46;;;;;;;;;51.50;42.00;;;;;3.41;100.00;100191.88;6278525;20;2860801;-52
2023/04/10 02:54:14;;;;;;;;;50.00;41.50;;;;;3.63;100.00;100193.06;6283853;20;2508614;-55
2023/04/10 02:56:43;;;;;;;;;55.00;43.00;;;;;3.75;100.00;100194.56;6284235;20;2871613;-50
2023/04/10 02:59:13;;;;;;;;;59.33;43.00;;;;;3.78;100.00;100189.16;6282429;20;2885828;-53
2023/04/10 03:01:41;;;;;;;;;56.00;41.00;;;;;3.76;100.00;100188.31;6311915;20;2876355;-54
2023/04/10 03:04:10;;;;;;;;;49.00;41.00;;;;;3.60;100.00;100189.63;6282114;20;2849230;-51
2023/04/10 03:06:39;;;;;;;;;56.00;41.33;;;;;3.37;100.00;100175.16;6280888;20;2869002;-54
2023/04/10 03:09:08;;;;;;;;;58.50;42.00;;;;;3.32;100.00;100179.72;6312148;20;2871163;-49
2023/04/10 03:11:38;;;;;;;;;70.00;52.33;;;;;3.16;100.00;100179.19;6281609;20;3635679;-51
2023/04/10 03:14:11;;;;;;;;;74.33;58.67;;;;;3.05;100.00;100175.91;6312609;20;2873225;-51
2023/04/10 03:16:40;;;;;;;;;94.00;78.67;;;;;2.96;100.00;100178.78;6310963;20;3664832;-55
2023/04/10 03:19:11;;;;;;;;;84.67;69.67;;;;;3.04;100.00;100184.78;6313010;20;3635651;-52
2023/04/10 03:21:41;;;;;;;;;74.67;56.00;;;;;3.12;100.00;100180.16;6310483;20;2880768;-53
2023/04/10 03:24:11;;;;;;;;;66.67;53.00;;;;;3.15;100.00;100187.19;6312242;20;3634623;-52
2023/04/10 03:26:40;;;;;;;;;57.00;46.00;;;;;3.33;100.00;100191.19;6313356;20;2869063;-49
2023/04/10 03:29:09;;;;;;;;;61.50;43.00;;;;;3.45;100.00;100190.88;6282609;20;2883588;-49
2023/04/10 03:31:38;;;;;;;;;61.00;50.00;;;;;3.30;100.00;100190.34;6279471;20;2867966;-48
2023/04/10 03:34:08;;;;;;;;;57.67;47.00;;;;;3.35;100.00;100184.06;6313520;20;3617015;-48
2023/04/10 03:36:37;;;;;;;;;55.00;45.00;;;;;3.52;100.00;100190.69;6312361;20;2857591;-48
2023/04/10 03:39:06;;;;;;;;;58.00;44.00;;;;;3.43;100.00;100184.75;6281898;20;2858738;-52
2023/04/10 03:41:35;;;;;;;;;62.33;45.00;;;;;3.52;100.00;100195.13;6281131;20;2881623;-50
2023/04/10 03:44:05;;;;;;;;;61.00;45.00;;;;;3.48;100.00;100190.81;6312580;20;3634681;-52
2023/04/10 03:46:34;;;;;;;;;54.00;43.00;;;;;3.50;100.00;100199.59;6309783;20;2855545;-51
2023/04/10 03:49:03;;;;;;;;;59.50;45.50;;;;;3.59;100.00;100198.53;6280734;20;2862827;-49
2023/04/10 03:51:31;;;;;;;;;71.00;57.00;;;;;3.55;100.00;100203.00;6279154;20;2866974;-49
2023/04/10 03:54:01;;;;;;;;;70.33;56.00;;;;;3.47;100.00;100199.69;6278630;20;3625467;-52
2023/04/10 03:56:31;;;;;;;;;66.00;52.00;;;;;3.45;100.00;100201.50;6313764;20;2879565;-50
2023/04/10 03:59:00;;;;;;;;;65.33;51.00;;;;;3.46;100.00;100192.63;6312386;20;3616305;-48
2023/04/10 04:01:29;;;;;;;;;57.00;48.00;;;;;3.51;100.00;100186.31;6309083;20;2870049;-50
2023/04/10 04:03:58;;;;;;;;;55.50;45.00;;;;;3.56;100.00;100198.59;6279900;20;2866013;-54
2023/04/10 04:06:28;;;;;;;;;52.50;41.00;;;;;3.49;100.00;100197.88;6276960;20;2858779;-50
2023/04/10 04:08:57;;;;;;;;;63.50;46.00;;;;;3.54;100.00;100190.66;6282714;20;2876329;-50
2023/04/10 04:11:26;;;;;;;;;54.00;42.00;;;;;3.24;100.00;100198.47;6280416;20;2816026;-51
2023/04/10 04:13:56;;;;;;;;;55.00;42.00;;;;;3.57;100.00;100206.50;6278747;20;2873312;-51
2023/04/10 04:16:25;;;;;;;;;56.50;44.50;;;;;3.70;100.00;100202.63;6309615;20;2863877;-48
2023/04/10 04:18:54;;;;;;;;;55.00;43.00;;;;;3.85;100.00;100208.50;6276754;20;2851342;-49
2023/04/10 04:21:22;;;;;;;;;52.50;42.00;;;;;3.76;100.00;100212.22;6276411;20;2493006;-49
2023/04/10 04:23:51;;;;;;;;;55.00;42.50;;;;;3.51;100.00;100217.28;6281693;20;2871119;-51
2023/04/10 04:26:19;;;;;;;;;43.50;39.00;;;;;3.50;100.00;100215.53;6277170;20;2495185;-52
2023/04/10 04:28:48;;;;;;;;;49.00;39.50;;;;;3.49;100.00;100209.34;6278693;20;2857626;-49
2023/04/10 04:31:17;;;;;;;;;55.00;43.50;;;;;3.48;100.00;100212.06;6279522;20;2871178;-50
2023/04/10 04:33:46;;;;;;;;;57.50;42.50;;;;;3.59;100.00;100220.63;6280893;20;2869031;-51
2023/04/10 04:36:15;;;;;;;;;57.50;44.00;;;;;3.71;100.00;100220.34;6281489;20;2875317;-51
2023/04/10 04:38:44;;;;;;;;;60.00;46.00;;;;;3.84;100.00;100222.66;6280705;20;2879468;-51
2023/04/10 04:41:14;;;;;;;;;61.00;47.00;;;;;4.05;100.00;100223.91;6280266;20;2878003;-52
2023/04/10 04:43:46;;;;;;;;;53.00;42.50;;;;;4.10;100.00;100225.50;6312496;20;2853400;-51
2023/04/10 04:46:14;;;;;;;;;50.50;41.50;;;;;4.15;100.00;100238.69;6279013;20;2498301;-53
2023/04/10 04:48:43;;;;;;;;;54.50;43.00;;;;;4.15;100.00;100234.25;6280544;20;2860895;-50
2023/04/10 04:51:13;;;;;;;;;51.33;39.00;;;;;4.58;100.00;100230.44;6274911;20;2866096;-53
2023/04/10 04:53:41;;;;;;;;;54.00;42.50;;;;;4.91;99.10;100238.34;6310860;20;2849243;-50
2023/04/10 04:56:10;;;;;;;;;58.00;46.00;;;;;5.27;95.87;100230.16;6282588;20;2856529;-53
2023/04/10 04:58:39;;;;;;;;;54.50;44.50;;;;;5.56;94.67;100241.69;6280119;20;2849261;-53
2023/04/10 05:01:08;;;;;;;;;54.00;42.50;;;;;5.90;94.08;100242.31;6277389;20;2856601;-54
2023/04/10 05:03:37;;;;;;;;;55.00;44.00;;;;;5.90;92.42;100237.00;6279434;20;2855462;-50
2023/04/10 05:06:07;;;;;;;;;53.00;41.50;;;;;5.59;94.07;100244.25;6277394;20;2853423;-52
2023/04/10 05:08:35;;;;;;;;;51.00;40.50;;;;;6.07;92.46;100246.25;6281887;20;2852394;-53
2023/04/10 05:11:05;;;;;;;;;50.50;38.50;;;;;6.11;91.86;100248.75;6278176;20;2862782;-54
2023/04/10 05:13:34;;;;;;;;;57.00;47.00;;;;;5.89;92.38;100240.56;6280121;20;2859635;-52
2023/04/10 05:16:03;;;;;;;;;54.33;46.00;;;;;5.85;93.07;100249.59;6282625;20;3606602;-52
2023/04/10 05:18:31;;;;;;;;;54.50;41.00;;;;;6.14;92.55;100243.31;6279421;20;2839904;-50
2023/04/10 05:21:00;;;;;;;;;51.00;42.50;;;;;6.24;91.46;100246.53;6279726;20;2851441;-52
2023/04/10 05:23:30;;;;;;;;;54.67;41.33;;;;;6.25;91.77;100250.94;6279980;20;2868133;-53
2023/04/10 05:25:59;;;;;;;;;51.00;40.00;;;;;6.49;91.27;100253.66;6313378;20;3588937;-52
2023/04/10 05:28:26;;;;;;;;;53.00;41.50;;;;;7.21;88.90;100251.88;6273386;20;2489836;-49
2023/04/10 05:30:55;;;;;;;;;49.50;42.00;;;;;7.69;85.08;100252.66;6279320;20;2858714;-50
2023/04/10 05:33:25;;;;;;;;;50.67;44.00;;;;;7.02;87.34;100250.81;6280159;20;2853519;-49
2023/04/10 05:35:55;;;;;;;;;54.00;46.33;;;;;6.80;89.30;100256.97;6304415;20;2864880;-50
2023/04/10 05:38:25;;;;;;;;;68.00;49.67;;;;;7.45;86.74;100258.06;6310412;20;3641988;-53
2023/04/10 05:40:54;;;;;;;;;61.00;47.00;;;;;7.38;85.82;100263.69;6306174;20;2872195;-49
2023/04/10 05:43:23;;;;;;;;;52.00;42.00;;;;;8.27;83.81;100265.41;6276044;20;2849242;-53
2023/04/10 05:45:51;;;;;;;;;49.50;40.00;;;;;8.63;81.76;100262.06;6275324;20;2454462;-54
2023/04/10 05:48:20;;;;;;;;;51.00;41.00;;;;;8.28;81.68;100261.78;6278096;20;2857605;-53
2023/04/10 05:50:49;;;;;;;;;54.00;43.00;;;;;7.64;84.99;100255.50;6276607;20;2852344;-52
2023/04/10 05:53:20;;;;;;;;;37.33;33.67;;;;;7.98;84.50;100256.81;6276125;20;2851315;-54
2023/04/10 05:55:50;;;;;;;;;43.00;37.67;;;;;8.24;84.82;100270.84;6313425;20;3585645;-53
2023/04/10 05:58:20;;;;;;;;;42.00;34.00;;;;;8.62;80.84;100268.38;6277208;20;3604435;-51
2023/04/10 06:00:48;;;;;;;;;39.50;35.50;;;;;8.64;81.30;100274.53;6307202;20;2854454;-51
2023/04/10 06:03:18;;;;;;;;;36.67;32.00;;;;;8.40;82.46;100268.44;6276688;20;2866029;-53
2023/04/10 06:05:47;;;;;;;;;38.00;36.00;;;;;9.81;78.30;100270.84;6307162;20;2853408;-54
2023/04/10 06:08:18;;;;;;;;;40.67;35.00;;;;;9.14;78.94;100268.72;6274977;20;3603468;-55
2023/04/10 06:10:47;;;;;;;;;45.00;37.00;;;;;10.06;76.21;100261.59;6309639;20;2847216;-55
2023/04/10 06:13:16;;;;;;;;;46.00;36.00;;;;;10.77;72.63;100267.75;6274385;20;3601401;-54
2023/04/10 06:15:45;;;;;;;;;40.50;35.00;;;;;9.92;75.46;100266.75;6307909;20;2848258;-53
2023/04/10 06:18:14;;;;;;;;;38.50;35.00;;;;;10.46;74.72;100263.13;6271586;20;2846293;-53
2023/04/10 06:20:43;;;;;;;;;40.50;35.00;;;;;10.88;73.68;100263.66;6276656;20;2850269;-54
2023/04/10 06:23:13;;;;;;;;;36.67;33.67;;;;;12.81;66.58;100274.06;6276450;20;2854530;-53
2023/04/10 06:25:42;;;;;;;;;32.67;29.67;;;;;13.54;63.10;100273.16;6310657;20;3610687;-60
2023/04/10 06:28:11;;;;;;;;;36.33;32.67;;;;;13.52;61.83;100269.69;6280591;20;3589860;-52
2023/04/10 06:30:39;;;;;;;;;48.00;40.00;;;;;14.65;58.81;100269.38;6274513;20;2840920;-56
2023/04/10 06:33:08;;;;;;;;;36.67;32.33;;;;;16.00;52.98;100274.06;6280246;20;3598312;-58
2023/04/10 06:35:38;;;;;;;;;41.00;33.00;;;;;16.93;50.38;100278.75;6273808;20;2877564;-61
2023/04/10 06:38:07;;;;;;;;;42.33;33.33;;;;;17.54;47.52;100283.84;6309861;20;3606593;-62
2023/04/10 06:40:36;;;;;;;;;34.33;31.67;;;;;18.14;45.83;100281.66;6283550;20;3605958;-58
2023/04/10 06:43:04;;;;;;;;;27.00;24.00;;;;;19.55;41.24;100280.34;6287365;20;3458659;-59
2023/04/10 06:45:33;;;;;;;;;32.67;29.00;;;;;19.52;40.43;100286.94;6318355;20;3592961;-59
2023/04/10 06:48:04;;;;;;;;;36.67;32.33;;;;;19.93;40.81;100282.38;6283584;20;3597149;-58
2023/04/10 06:50:32;;;;;;;;;32.67;30.33;;;;;20.00;39.61;100279.06;6316373;20;3595036;-57
2023/04/10 06:53:01;;;;;;;;;33.67;30.00;;;;;20.64;39.36;100277.69;6286370;20;3587755;-57
2023/04/10 06:55:30;;;;;;;;;33.00;30.33;;;;;20.38;39.95;100279.13;6287794;20;3594216;-57
2023/04/10 06:57:59;;;;;;;;;30.00;27.67;;;;;21.22;38.65;100283.94;6284389;20;3605611;-56
2023/04/10 07:00:29;;;;;;;;;26.33;26.00;;;;;22.58;35.12;100283.16;6286429;20;3606533;-58
2023/04/10 07:02:58;;;;;;;;;26.33;26.33;;;;;21.68;37.10;100295.84;6282861;20;3594049;-57
2023/04/10 07:05:26;;;;;;;;;25.00;25.00;;;;;23.74;34.04;100293.94;6288007;20;3598189;-58
2023/04/10 07:07:55;;;;;;;;;28.33;28.33;;;;;21.53;35.29;100286.41;6286796;20;3603428;-58
2023/04/10 07:10:24;;;;;;;;;27.67;26.33;;;;;21.49;34.56;100301.41;6284368;20;3594004;-58
2023/04/10 07:12:53;;;;;;;;;24.33;24.33;;;;;20.38;36.83;100292.75;6278889;20;3584653;-55
2023/04/10 07:15:23;;;;;;;;;30.00;29.67;;;;;21.13;35.77;100295.72;6281166;20;3602334;-57
2023/04/10 07:17:52;;;;;;;;;34.00;31.67;;;;;23.14;32.96;100307.59;6316264;20;3602390;-57
2023/04/10 07:20:20;;;;;;;;;25.33;24.67;;;;;23.49;32.42;100294.81;6287274;20;3585771;-58
2023/04/10 07:22:49;;;;;;;;;31.00;29.33;;;;;22.14;32.95;100302.22;6287059;20;3589966;-55
2023/04/10 07:25:18;;;;;;;;;33.00;28.00;;;;;19.78;37.75;100289.22;6285020;20;3612772;-55
2023/04/10 07:27:47;;;;;;;;;31.67;30.00;;;;;20.05;36.54;100293.16;6284713;20;3577412;-53
2023/04/10 07:30:15;;;;;;;;;31.00;29.00;;;;;15.34;45.53;100278.88;6285930;20;3593030;-54
2023/04/10 07:32:45;;;;;;;;;30.00;29.33;;;;;15.37;46.93;100269.66;6283123;20;2850420;-59
2023/04/10 07:35:14;;;;;;;;;33.00;31.00;;;;;14.24;50.53;100265.81;6312534;20;3595091;-54
2023/04/10 07:37:43;;;;;;;;;30.00;30.00;;;;;15.71;48.32;100268.09;6288378;20;3601315;-56
2023/04/10 07:40:12;;;;;;;;;40.00;35.00;;;;;15.36;48.27;100273.34;6284901;20;3601294;-55
2023/04/10 07:42:41;;;;;;;;;28.00;26.67;;;;;15.40;47.98;100277.56;6310659;20;3597217;-53
2023/04/10 07:45:11;;;;;;;;;47.00;38.33;;;;;15.19;48.54;100265.56;6282347;20;3587780;-53
2023/04/10 07:47:40;;;;;;;;;25.00;25.00;;;;;15.50;46.22;100267.78;6279065;20;3589830;-52
2023/04/10 07:50:10;;;;;;;;;39.67;34.67;;;;;14.75;48.28;100261.50;6314306;20;3587915;-52
2023/04/10 07:52:39;;;;;;;;;39.00;35.00;;;;;16.11;46.53;100270.53;6280932;20;2859686;-53
2023/04/10 07:55:09;;;;;;;;;24.00;21.67;;;;;15.37;45.79;100264.25;6316043;20;3598292;-52
2023/04/10 07:57:39;;;;;;;;;28.33;28.33;;;;;15.70;46.17;100265.53;6284328;20;2848236;-53
2023/04/10 08:00:11;;;;;;;;;34.33;31.67;;;;;15.52;46.41;100260.44;6314578;20;3574311;-60
2023/04/10 08:02:40;;;;;;;;;38.33;34.67;;;;;14.43;49.48;100256.44;6285739;20;3591940;-60
2023/04/10 08:05:09;;;;;;;;;32.00;28.00;;;;;14.54;48.94;100248.50;6289865;20;3606469;-50
2023/04/10 08:07:37;;;;;;;;;20.00;20.00;;;;;14.30;49.32;100260.91;6279663;20;2500287;-54
2023/04/10 08:10:08;;;;;;;;;34.50;32.50;;;;;14.92;48.79;100258.44;6283656;20;2851511;-59
2023/04/10 08:12:36;;;;;;;;;30.33;30.00;;;;;15.05;48.92;100253.91;6311877;20;3583623;-61
2023/04/10 08:15:07;;;;;;;;;28.33;22.33;;;;;16.25;45.09;100255.97;6281173;20;3591121;-61
2023/04/10 08:17:35;;;;;;;;;26.00;24.00;;;;;16.21;46.04;100249.03;6277704;20;2831552;-60
2023/04/10 08:20:06;;;;;;;;;29.67;24.33;;;;;15.25;45.59;100248.91;6280727;20;3596127;-62
2023/04/10 08:22:34;;;;;;;;;31.67;31.33;;;;;15.39;46.07;100247.91;6286403;20;3590963;-62
2023/04/10 08:25:05;;;;;;;;;28.33;25.00;;;;;16.30;44.35;100253.78;6286090;20;3601375;-61
2023/04/10 08:27:33;;;;;;;;;21.00;20.50;;;;;16.37;42.02;100252.31;6282648;20;2839858;-62
2023/04/10 08:30:03;;;;;;;;;22.00;19.50;;;;;16.21;42.17;100247.19;6283119;20;2836885;-62
2023/04/10 08:32:32;;;;;;;;;20.00;17.50;;;;;15.86;40.94;100251.72;6281321;20;2831692;-62
2023/04/10 08:35:00;;;;;;;;;22.67;19.67;;;;;15.62;44.54;100248.94;6286091;20;3570041;-62
2023/04/10 08:37:29;;;;;;;;;29.00;26.00;;;;;15.05;45.69;100245.78;6313712;20;3581530;-62
2023/04/10 08:39:58;;;;;;;;;23.50;21.00;;;;;15.55;43.65;100241.25;6281590;20;2840917;-62
2023/04/10 08:42:27;;;;;;;;;22.00;19.00;;;;;15.95;42.48;100241.03;6285728;20;2832729;-62
2023/04/10 08:44:55;;;;;;;;;23.00;21.00;;;;;15.87;41.81;100243.47;6289332;20;2722199;-61
2023/04/10 08:47:27;;;;;;;;;12.33;11.33;;;;;15.63;42.84;100237.13;6279728;20;3514924;-62
2023/04/10 08:50:03;;;;;;;;;25.00;23.67;;;;;15.10;44.32;100238.22;6311847;20;2847180;-62
2023/04/10 08:52:35;;;;;;;;;19.00;19.00;;;;;15.53;41.88;100237.81;6316176;20;3577348;-62
2023/04/10 08:55:08;;;;;;;;;191.33;170.67;;;;;15.37;42.47;100232.63;6282813;20;3720094;-61
2023/04/10 08:57:38;;;;;;;;;24.00;24.00;;;;;15.57;44.55;100233.03;6280249;20;3586828;-61
2023/04/10 09:00:14;;;;;;;;;27.33;27.33;;;;;15.12;46.04;100236.28;6281062;20;2848312;-62
2023/04/10 09:03:13;;;;;;;;;30.00;28.00;;;;;15.20;45.80;100230.31;6312982;20;3599211;-61
2023/04/10 09:05:43;;;;;;;;;27.00;25.67;;;;;15.14;45.68;100236.19;6286907;20;3598193;-62
2023/04/10 09:08:14;;;;;;;;;31.33;29.00;;;;;15.45;45.70;100232.09;6286900;20;3601323;-61
2023/04/10 09:10:43;;;;;;;;;28.00;26.33;;;;;16.02;44.17;100234.19;6281559;20;3579426;-63
2023/04/10 09:13:12;;;;;;;;;27.33;27.33;;;;;15.63;45.93;100226.31;6281979;20;3600274;-61
2023/04/10 09:15:58;;;;;;;;;27.00;26.00;;;;;15.43;45.24;100225.94;6283892;20;3596085;-61
2023/04/10 09:18:50;;;;;;;;;27.67;27.33;;;;;15.84;45.44;100219.31;6284470;20;3593001;-62
2023/04/10 09:21:21;;;;;;;;;23.00;23.00;;;;;16.07;44.71;100222.16;6278408;20;2856628;-63
2023/04/10 09:24:00;;;;;;;;;37.50;31.50;;;;;15.36;45.68;100217.41;6311868;20;2866972;-62
2023/04/10 09:26:33;;;;;;;;;25.00;22.33;;;;;15.78;46.20;100219.78;6280998;20;3581550;-63
2023/04/10 09:29:09;;;;;;;;;27.33;26.00;;;;;15.69;45.95;100213.22;6284474;20;3591917;-62
2023/04/10 09:31:39;;;;;;;;;26.33;24.67;;;;;15.57;46.05;100216.81;6279266;20;3589964;-62
2023/04/10 09:34:20;;;;;;;;;32.33;29.33;;;;;15.54;46.66;100222.44;6285566;20;3587885;-62
2023/04/10 09:37:00;;;;;;;;;31.67;29.67;;;;;15.36;47.17;100213.81;6286745;20;3593030;-62
2023/04/10 09:39:44;;;;;;;;;33.33;29.33;;;;;15.39;46.01;100216.31;6287697;20;3604495;-62
2023/04/10 09:42:14;;;;;;;;;28.00;26.67;;;;;14.96;46.82;100211.31;6280896;20;3596121;-62
2023/04/10 09:44:43;;;;;;;;;41.33;34.33;;;;;15.35;47.73;100212.13;6277664;20;2859702;-62
2023/04/10 09:47:13;;;;;;;;;34.75;29.00;;;;;14.70;47.46;100211.31;6315773;20;3620265;-62
2023/04/10 09:49:59;;;;;;;;;71.67;62.67;;;;;14.98;46.79;100212.06;6312758;20;2879540;-62
2023/04/10 09:52:34;;;;;;;;;30.00;26.67;;;;;14.47;48.35;100198.50;6314630;20;3604451;-56
2023/04/10 09:55:08;;;;;;;;;27.67;27.67;;;;;14.38;49.76;100201.84;6280451;20;3602400;-58
2023/04/10 09:57:37;;;;;;;;;29.67;29.67;;;;;14.43;49.58;100197.00;6277979;20;3611852;-54
2023/04/10 10:00:08;;;;;;;;;7.80;6.40;;;;;14.67;49.00;100202.56;6305110;20;2740943;-57
2023/04/10 10:02:38;;;;;;;;;44.00;35.00;;;;;14.87;46.93;100195.72;6309067;20;2814008;-51
2023/04/10 10:05:09;;;;;;;;;23.00;23.00;;;;;15.02;47.88;100196.47;6277264;20;2848218;-54
2023/04/10 10:07:38;;;;;;;;;25.67;25.67;;;;;15.00;45.69;100193.00;6309708;20;3598196;-54
2023/04/10 10:10:08;;;;;;;;;30.67;30.00;;;;;15.22;45.40;100193.19;6284404;20;3587784;-55
2023/04/10 10:12:54;;;;;;;;;31.33;30.33;;;;;15.60;44.72;100189.50;6281356;20;3577374;-54
2023/04/10 10:15:43;;;;;;;;;32.00;25.67;;;;;15.30;45.25;100188.09;6282489;20;2850311;-57
2023/04/10 10:18:29;;;;;;;;;28.00;23.67;;;;;15.36;45.75;100189.47;6318970;20;3591915;-55
2023/04/10 10:21:00;;;;;;;;;32.00;30.00;;;;;15.76;45.74;100178.41;6284355;20;3600379;-56
2023/04/10 10:23:33;;;;;;;;;32.88;29.50;;;;;16.28;43.53;100184.41;6307196;20;3586748;-57
2023/04/10 10:26:05;;;;;;;;;32.00;31.00;;;;;16.37;43.71;100183.69;6286904;20;3579414;-55
2023/04/10 10:28:36;;;;;;;;;33.00;31.00;;;;;16.61;42.74;100176.38;6283956;20;3598221;-55
2023/04/10 10:31:05;;;;;;;;;31.67;27.67;;;;;16.01;43.98;100175.59;6285075;20;3598565;-55
2023/04/10 10:33:36;;;;;;;;;7.50;7.00;;;;;15.10;43.56;100167.91;6285017;20;2747134;-55
2023/04/10 10:36:05;;;;;;;;;26.67;23.67;;;;;15.33;44.86;100165.34;6286484;20;3595039;-56
2023/04/10 10:38:38;;;;;;;;;18.50;18.50;;;;;14.97;44.07;100164.34;6282758;20;2831496;-54
2023/04/10 10:41:50;;;;;;;;;29.33;26.00;;;;;15.45;44.61;100177.97;6283287;20;3606613;-53
2023/04/10 10:44:33;;;;;;;;;18.50;17.00;;;;;15.16;44.62;100171.97;6280928;20;2492060;-54
2023/04/10 10:47:26;;;;;;;;;27.33;25.33;;;;;15.28;44.43;100178.34;6283097;20;3584785;-56
2023/04/10 10:50:03;;;;;;;;;29.33;29.00;;;;;15.00;46.75;100183.06;6285557;20;3589871;-55
2023/04/10 10:52:51;;;;;;;;;19.00;16.67;;;;;13.88;47.47;100182.72;6282479;20;3569052;-57
2023/04/10 10:58:03;;;;;;;;;17.33;14.33;;;;;13.56;48.97;100176.75;6316939;20;3571147;-53
2023/04/10 11:00:50;;;;;;;;;18.50;14.00;;;;;13.21;49.75;100197.94;6282082;20;2809749;-57
2023/04/10 11:03:21;;;;;;;;;23.50;19.50;;;;;13.31;50.64;100186.47;6281730;20;2844499;-56
2023/04/10 11:06:01;;;;;;;;;22.50;22.50;;;;;13.17;50.81;100181.09;6281935;20;2500390;-54
2023/04/10 11:08:46;;;;;;;;;27.00;25.33;;;;;13.28;51.56;100178.59;6284069;20;3596179;-53
2023/04/10 11:11:22;;;;;;;;;20.00;16.00;;;;;13.17;51.15;100178.38;6281509;20;2837773;-55
2023/04/10 11:13:55;;;;;;;;;20.67;19.33;;;;;13.04;51.01;100174.75;6284860;20;3570251;-57
2023/04/10 11:16:44;;;;;;;;;19.67;18.33;;;;;12.99;51.25;100174.19;6314917;20;3565892;-53
2023/04/10 11:19:13;;;;;;;;;46.00;38.00;;;;;13.05;51.76;100179.16;6316863;20;3596147;-55